< < Back
Terminal Aerodrome Forecast


Current Version              Previous Versions:   1  2  3  4  5  6  7  8  9  

Terminal Aerodrome Forecast

343
FTUS44 KOHX 201200 AAA
TAFBNA
TAF AMD
KBNA 201258Z 2013/2112 18004KT P6SM SCT150 SCT250
     FM201700 22006KT P6SM SCT050 BKN150=



Latest METAR

177
SAUS70 KWBC 210700 RRC
MTRBNA
METAR KBNA 210653Z 00000KT 10SM CLR 12/09 A3001 RMK AO2 SLP160
T01170094


USA.gov is the U.S. government's official web portal to all federal, state and local government web resources and services.